createdAt,value
2024-04-25T00:00:12.719Z,99855.88
2024-04-25T00:02:43.941Z,99842.94
2024-04-25T00:05:13.637Z,99848.09
2024-04-25T00:07:43.306Z,99842.94
2024-04-25T00:10:13.035Z,99842.03
2024-04-25T00:12:45.781Z,99840.25
2024-04-25T00:15:15.483Z,99845.38
2024-04-25T00:17:45.266Z,99845.25
2024-04-25T00:20:15.013Z,99838.31
2024-04-25T00:22:44.810Z,99840.16
2024-04-25T00:25:14.538Z,99837.69
2024-04-25T00:27:46.782Z,99835.03
2024-04-25T00:30:16.726Z,99831.59
2024-04-25T00:32:46.614Z,99836.84
2024-04-25T00:35:16.735Z,99831.72
2024-04-25T00:37:46.426Z,99830.91
2024-04-25T00:40:16.654Z,99830.91
2024-04-25T00:42:48.937Z,99830.84
2024-04-25T00:45:18.669Z,99829.16
2024-04-25T00:47:50.019Z,99832.66
2024-04-25T00:50:22.163Z,99828.34
2024-04-25T00:52:52.215Z,99828.34
2024-04-25T00:55:22.026Z,99830.97
2024-04-25T00:57:56.041Z,99830.03
2024-04-25T01:00:28.674Z,99824.84
2024-04-25T01:02:59.657Z,99822.31
2024-04-25T01:05:32.122Z,99826.59
2024-04-25T01:08:02.458Z,99823.16
2024-04-25T01:10:32.101Z,99823.97
2024-04-25T01:13:04.780Z,99822.31
2024-04-25T01:15:34.814Z,99828.31
2024-04-25T01:18:04.748Z,99827.50
2024-04-25T01:20:36.032Z,99816.25
2024-04-25T01:23:12.502Z,99812.84
2024-04-25T01:25:47.286Z,99814.50
2024-04-25T01:28:19.309Z,99817.13
2024-04-25T01:30:50.166Z,99814.53
2024-04-25T01:33:20.755Z,99811.06
2024-04-25T01:35:50.589Z,99816.16
2024-04-25T01:38:21.823Z,99803.16
2024-04-25T01:40:54.221Z,99814.34
2024-04-25T01:43:24.165Z,99810.03
2024-04-25T01:45:53.866Z,99803.97
2024-04-25T01:48:23.710Z,99812.63
2024-04-25T01:50:53.787Z,99808.13
2024-04-25T01:53:24.950Z,99806.31
2024-04-25T01:55:57.341Z,99798.41
2024-04-25T01:58:27.016Z,99807.00
2024-04-25T02:00:56.768Z,99807.03
2024-04-25T02:03:26.742Z,99805.34
2024-04-25T02:05:56.468Z,99804.47
2024-04-25T02:08:26.325Z,99808.75
2024-04-25T02:10:58.822Z,99811.38
2024-04-25T02:13:28.839Z,99805.34
2024-04-25T02:15:58.506Z,99803.69
2024-04-25T02:18:28.198Z,99801.09
2024-04-25T02:21:13.983Z,99804.47
2024-04-25T02:23:59.351Z,99806.09
2024-04-25T02:26:31.650Z,99798.31
2024-04-25T02:29:01.281Z,99799.22
2024-04-25T02:31:33.126Z,99794.91
2024-04-25T02:34:02.970Z,99798.38
2024-04-25T02:36:32.698Z,99801.81
2024-04-25T02:39:02.359Z,99801.81
2024-04-25T02:41:34.724Z,99802.69
2024-04-25T02:44:01.844Z,99800.03
2024-04-25T02:46:31.517Z,99802.63
2024-04-25T02:48:59.527Z,99800.03
2024-04-25T02:51:29.314Z,99796.53
2024-04-25T02:53:56.377Z,99805.16
2024-04-25T02:56:26.163Z,99798.19
2024-04-25T02:58:56.036Z,99802.41
2024-04-25T03:01:25.731Z,99798.88
2024-04-25T03:03:55.514Z,99792.78
2024-04-25T03:06:22.931Z,99804.03
2024-04-25T03:08:52.591Z,99804.91
2024-04-25T03:11:19.757Z,99806.66
2024-04-25T03:13:49.457Z,99805.81
2024-04-25T03:16:19.127Z,99804.00
2024-04-25T03:18:48.823Z,99798.91
2024-04-25T03:21:16.018Z,99804.03
2024-04-25T03:23:45.909Z,99803.97
2024-04-25T03:26:13.089Z,99805.63
2024-04-25T03:28:42.731Z,99802.19
2024-04-25T03:31:09.849Z,99805.66
2024-04-25T03:33:42.250Z,99802.16
2024-04-25T03:36:09.492Z,99798.63
2024-04-25T03:38:39.312Z,99799.41
2024-04-25T03:41:09.022Z,99802.91
2024-04-25T03:43:38.667Z,99802.91
2024-04-25T03:46:09.485Z,99799.50
2024-04-25T03:48:41.843Z,99797.78
2024-04-25T03:51:12.185Z,99793.41
2024-04-25T03:53:41.895Z,99805.47
2024-04-25T03:56:11.621Z,99791.59
2024-04-25T03:58:41.642Z,99791.56
2024-04-25T04:01:11.309Z,99792.28
2024-04-25T04:03:44.071Z,99789.66
2024-04-25T04:06:13.804Z,99794.78
2024-04-25T04:08:43.733Z,99798.19
2024-04-25T04:11:13.490Z,99790.53
2024-04-25T04:13:43.181Z,99800.06
2024-04-25T04:16:12.913Z,99791.47
2024-04-25T04:18:45.296Z,99798.44
2024-04-25T04:21:14.265Z,99798.41
2024-04-25T04:23:44.647Z,99802.69
2024-04-25T04:26:14.395Z,99799.28
2024-04-25T04:28:44.104Z,99801.00
2024-04-25T04:31:13.757Z,99806.28
2024-04-25T04:33:46.181Z,99806.34
2024-04-25T04:36:15.972Z,99802.88
2024-04-25T04:38:45.610Z,99803.69
2024-04-25T04:41:15.706Z,99805.41
2024-04-25T04:43:45.940Z,99808.78
2024-04-25T04:46:15.699Z,99808.88
2024-04-25T04:48:49.977Z,99815.78
2024-04-25T04:51:21.553Z,99812.34
2024-04-25T04:53:52.350Z,99809.75
2024-04-25T04:56:22.197Z,99814.88
2024-04-25T04:58:51.890Z,99819.22
2024-04-25T05:01:21.523Z,99826.09
2024-04-25T05:03:53.852Z,99823.50
2024-04-25T05:06:23.506Z,99819.13
2024-04-25T05:08:54.320Z,99824.41
2024-04-25T05:11:24.029Z,99820.06
2024-04-25T05:13:53.912Z,99820.88
2024-04-25T05:16:23.615Z,99828.66
2024-04-25T05:18:56.002Z,99830.50
2024-04-25T05:21:26.498Z,99827.03
2024-04-25T05:23:56.138Z,99820.16
2024-04-25T05:26:25.861Z,99831.34
2024-04-25T05:28:55.575Z,99819.28
2024-04-25T05:31:25.243Z,99830.50
2024-04-25T05:33:58.435Z,99820.19
2024-04-25T05:36:28.374Z,99821.94
2024-04-25T05:38:58.081Z,99823.78
2024-04-25T05:41:27.864Z,99824.72
2024-04-25T05:43:57.944Z,99829.88
2024-04-25T05:46:28.195Z,99824.84
2024-04-25T05:49:00.570Z,99830.88
2024-04-25T05:51:30.442Z,99823.97
2024-04-25T05:54:00.137Z,99830.09
2024-04-25T05:56:30.459Z,99829.34
2024-04-25T05:59:00.653Z,99836.38
2024-04-25T06:01:30.350Z,99837.28
2024-04-25T06:04:02.669Z,99845.03
2024-04-25T06:06:33.984Z,99841.53
2024-04-25T06:09:03.681Z,99845.03
2024-04-25T06:11:34.690Z,99843.31
2024-04-25T06:14:04.837Z,99846.81
2024-04-25T06:16:34.586Z,99843.38
2024-04-25T06:19:06.923Z,99846.03
2024-04-25T06:21:36.615Z,99846.03
2024-04-25T06:24:06.824Z,99852.09
2024-04-25T06:26:37.894Z,99850.34
2024-04-25T06:29:07.942Z,99852.97
2024-04-25T06:31:38.009Z,99850.44
2024-04-25T06:34:11.977Z,99853.00
2024-04-25T06:36:42.104Z,99852.19
2024-04-25T06:39:11.820Z,99861.75
2024-04-25T06:41:47.128Z,99860.84
2024-04-25T06:44:29.429Z,99861.78
2024-04-25T06:47:04.362Z,99860.09
2024-04-25T06:49:36.741Z,99866.13
2024-04-25T06:52:06.736Z,99862.59
2024-04-25T06:54:36.533Z,99857.41
2024-04-25T06:57:06.248Z,99863.56
2024-04-25T06:59:36.283Z,99858.38
2024-04-25T07:02:08.224Z,99859.28
2024-04-25T07:04:40.571Z,99856.66
2024-04-25T07:07:10.292Z,99856.69
2024-04-25T07:09:40.000Z,99861.09
2024-04-25T07:12:09.773Z,99858.59
2024-04-25T07:14:39.540Z,99856.03
2024-04-25T07:17:09.542Z,99856.03
2024-04-25T07:19:41.847Z,99854.22
2024-04-25T07:22:11.739Z,99855.03
2024-04-25T07:24:41.403Z,99853.31
2024-04-25T07:27:11.082Z,99857.66
2024-04-25T07:29:47.651Z,99858.50
2024-04-25T07:32:18.675Z,99861.84
2024-04-25T07:34:51.093Z,99856.63
2024-04-25T07:37:24.548Z,99859.28
2024-04-25T07:39:54.246Z,99855.78
2024-04-25T07:42:24.043Z,99855.84
2024-04-25T07:44:55.391Z,99862.78
2024-04-25T07:47:25.192Z,99861.19
2024-04-25T07:49:57.699Z,99864.63
2024-04-25T07:52:30.072Z,99863.75
2024-04-25T07:55:01.590Z,99863.91
2024-04-25T07:57:31.424Z,99859.69
2024-04-25T08:00:01.145Z,99855.41
2024-04-25T08:02:30.897Z,99861.44
2024-04-25T08:05:03.405Z,99859.72
2024-04-25T08:07:33.170Z,99854.53
2024-04-25T08:10:02.830Z,99856.34
2024-04-25T08:12:33.492Z,99852.94
2024-04-25T08:15:03.249Z,99858.25
2024-04-25T08:17:33.954Z,99853.19
2024-04-25T08:20:08.313Z,99845.47
2024-04-25T08:22:38.006Z,99849.84
2024-04-25T08:25:08.005Z,99846.34
2024-04-25T08:27:37.731Z,99852.34
2024-04-25T08:30:08.487Z,99850.53
2024-04-25T08:32:38.371Z,99853.13
2024-04-25T08:35:11.588Z,99848.84
2024-04-25T08:37:41.346Z,99842.94
2024-04-25T08:40:13.085Z,99849.94
2024-04-25T08:42:49.485Z,99848.34
2024-04-25T08:45:19.349Z,99850.09
2024-04-25T08:47:52.550Z,99845.78
2024-04-25T08:50:26.955Z,99844.13
2024-04-25T08:52:58.462Z,99842.56
2024-04-25T08:55:29.082Z,99834.19
2024-04-25T08:58:00.252Z,99836.09
2024-04-25T09:00:29.898Z,99832.72
2024-04-25T09:03:01.883Z,99832.78
2024-04-25T09:05:37.054Z,99839.81
2024-04-25T09:08:12.732Z,99842.47
2024-04-25T09:10:42.958Z,99834.75
2024-04-25T09:13:12.984Z,99832.22
2024-04-25T09:15:42.889Z,99835.72
2024-04-25T09:18:12.981Z,99825.34
2024-04-25T09:20:45.965Z,99823.69
2024-04-25T09:23:15.885Z,99819.31
2024-04-25T09:25:45.615Z,99816.69
2024-04-25T09:28:15.913Z,99807.34
2024-04-25T09:30:46.015Z,99814.34
2024-04-25T09:33:15.928Z,99801.31
2024-04-25T09:35:50.025Z,99802.94
2024-04-25T09:38:20.114Z,99812.38
2024-04-25T09:40:51.546Z,99820.91
2024-04-25T09:43:22.290Z,99812.13
2024-04-25T09:45:53.395Z,99825.81
2024-04-25T09:48:24.821Z,99823.88
2024-04-25T09:51:06.377Z,99827.97
2024-04-25T09:53:43.827Z,99822.50
2024-04-25T09:56:23.074Z,99811.97
2024-04-25T09:58:58.261Z,99808.47
2024-04-25T10:01:31.891Z,99814.66
2024-04-25T10:04:03.474Z,99806.06
2024-04-25T10:06:37.197Z,99808.75
2024-04-25T10:09:08.603Z,99798.63
2024-04-25T10:11:39.920Z,99799.88
2024-04-25T10:14:09.613Z,99797.59
2024-04-25T10:16:39.895Z,99783.84
2024-04-25T10:19:09.866Z,99776.94
2024-04-25T10:21:49.314Z,99778.66
2024-04-25T10:24:19.022Z,99778.63
2024-04-25T10:26:49.927Z,99788.09
2024-04-25T10:29:19.835Z,99778.44
2024-04-25T10:31:49.717Z,99789.63
2024-04-25T10:34:19.465Z,99786.03
2024-04-25T10:36:51.806Z,99783.31
2024-04-25T10:39:21.600Z,99776.25
2024-04-25T10:41:51.866Z,99766.72
2024-04-25T10:44:21.771Z,99770.19
2024-04-25T10:46:51.945Z,99762.56
2024-04-25T10:49:22.068Z,99767.06
2024-04-25T10:51:55.043Z,99756.88
2024-04-25T10:54:24.854Z,99757.06
2024-04-25T10:56:54.698Z,99756.25
2024-04-25T10:59:31.092Z,99749.38
2024-04-25T11:02:03.414Z,99749.34
2024-04-25T11:04:36.694Z,99739.81
2024-04-25T11:07:10.572Z,99740.75
2024-04-25T11:09:40.631Z,99741.59
2024-04-25T11:12:13.583Z,99739.00
2024-04-25T11:14:44.004Z,99733.78
2024-04-25T11:17:16.563Z,99730.31
2024-04-25T11:19:50.091Z,99719.91
2024-04-25T11:22:30.858Z,99723.38
2024-04-25T11:25:21.776Z,99725.06
2024-04-25T11:27:52.423Z,99723.28
2024-04-25T11:30:22.236Z,99726.81
2024-04-25T11:32:52.078Z,99723.34
2024-04-25T11:35:23.418Z,99705.22
2024-04-25T11:37:58.201Z,99699.22
2024-04-25T11:40:41.270Z,99693.19
2024-04-25T11:43:11.224Z,99699.31
2024-04-25T11:45:39.097Z,99699.41
2024-04-25T11:48:11.993Z,99695.97
2024-04-25T11:50:42.140Z,99701.16
2024-04-25T11:53:14.838Z,99693.41
2024-04-25T11:55:46.396Z,99690.78
2024-04-25T11:58:16.157Z,99685.56
2024-04-25T12:00:49.633Z,99692.47
2024-04-25T12:03:20.387Z,99683.81
2024-04-25T12:05:50.453Z,99680.34
2024-04-25T12:08:22.842Z,99675.16
2024-04-25T12:10:54.450Z,99685.59
2024-04-25T12:13:24.438Z,99689.91
2024-04-25T12:15:54.132Z,99696.00
2024-04-25T12:18:26.880Z,99694.22
2024-04-25T12:20:58.996Z,99695.91
2024-04-25T12:23:34.926Z,99701.91
2024-04-25T12:26:04.871Z,99704.41
2024-04-25T12:28:35.726Z,99702.56
2024-04-25T12:31:08.261Z,99705.97
2024-04-25T12:33:38.827Z,99699.00
2024-04-25T12:36:09.096Z,99694.63
2024-04-25T12:38:41.394Z,99693.75
2024-04-25T12:41:11.172Z,99695.53
2024-04-25T12:43:40.815Z,99699.88
2024-04-25T12:46:10.451Z,99690.41
2024-04-25T12:48:40.155Z,99687.06
2024-04-25T12:51:09.878Z,99693.19
2024-04-25T12:53:43.782Z,99686.34
2024-04-25T12:56:13.839Z,99685.53
2024-04-25T12:58:43.580Z,99682.97
2024-04-25T13:01:13.295Z,99680.38
2024-04-25T13:03:43.804Z,99686.44
2024-04-25T13:06:13.556Z,99680.38
2024-04-25T13:08:48.105Z,99679.53
2024-04-25T13:11:18.025Z,99684.72
2024-04-25T13:13:47.794Z,99680.41
2024-04-25T13:16:17.564Z,99665.66
2024-04-25T13:18:47.603Z,99680.38
2024-04-25T13:21:17.402Z,99664.78
2024-04-25T13:23:49.902Z,99673.44
2024-04-25T13:26:25.502Z,99679.50
2024-04-25T13:28:55.714Z,99676.03
2024-04-25T13:31:26.996Z,99679.53
2024-04-25T13:33:57.252Z,99670.00
2024-04-25T13:36:28.400Z,99668.22
2024-04-25T13:39:00.726Z,99673.44
2024-04-25T13:41:30.632Z,99668.22
2024-04-25T13:44:00.271Z,99677.75
2024-04-25T13:46:31.937Z,99663.88
2024-04-25T13:49:01.729Z,99665.59
2024-04-25T13:51:31.638Z,99656.94
2024-04-25T13:54:07.642Z,99659.53
2024-04-25T13:56:37.730Z,99658.72
2024-04-25T13:59:07.574Z,99655.25
2024-04-25T14:01:37.342Z,99657.88
2024-04-25T14:04:08.325Z,99656.13
2024-04-25T14:06:42.433Z,99654.38
2024-04-25T14:09:14.949Z,99657.84
2024-04-25T14:11:51.760Z,99650.03
2024-04-25T14:14:22.449Z,99652.63
2024-04-25T14:16:53.861Z,99649.16
2024-04-25T14:19:24.175Z,99647.44
2024-04-25T14:21:54.117Z,99643.06
2024-04-25T14:24:28.284Z,99640.44
2024-04-25T14:27:16.327Z,99645.66
2024-04-25T14:29:46.093Z,99641.34
2024-04-25T14:32:16.013Z,99649.16
2024-04-25T14:34:45.771Z,99641.38
2024-04-25T14:37:18.006Z,99636.19
2024-04-25T14:39:50.372Z,99649.19
2024-04-25T14:42:20.209Z,99645.69
2024-04-25T14:44:50.221Z,99643.97
2024-04-25T14:47:20.209Z,99642.25
2024-04-25T14:49:49.928Z,99646.59
2024-04-25T14:52:19.684Z,99644.81
2024-04-25T14:54:51.976Z,99640.47
2024-04-25T14:57:21.646Z,99630.91
2024-04-25T14:59:51.604Z,99635.22
2024-04-25T15:02:26.089Z,99626.53
2024-04-25T15:04:57.519Z,99629.13
2024-04-25T15:07:27.243Z,99625.66
2024-04-25T15:09:59.528Z,99629.16
2024-04-25T15:12:30.180Z,99625.66
2024-04-25T15:15:08.366Z,99623.91
2024-04-25T15:17:42.958Z,99623.94
2024-04-25T15:20:14.036Z,99629.16
2024-04-25T15:22:43.857Z,99630.06
2024-04-25T15:25:16.414Z,99633.56
2024-04-25T15:27:46.058Z,99635.31
2024-04-25T15:30:15.768Z,99638.78
2024-04-25T15:32:45.795Z,99633.59
2024-04-25T15:35:15.653Z,99633.59
2024-04-25T15:37:45.526Z,99626.63
2024-04-25T15:40:18.162Z,99635.31
2024-04-25T15:42:49.731Z,99623.16
2024-04-25T15:45:19.532Z,99621.47
2024-04-25T15:47:49.426Z,99624.91
2024-04-25T15:50:19.680Z,99621.44
2024-04-25T15:52:50.140Z,99617.13
2024-04-25T15:55:22.466Z,99621.44
2024-04-25T15:57:54.663Z,99609.28
2024-04-25T16:00:24.362Z,99612.78
2024-04-25T16:02:54.089Z,99611.03
2024-04-25T16:05:23.857Z,99613.63
2024-04-25T16:07:53.505Z,99606.66
2024-04-25T16:10:26.012Z,99588.47
2024-04-25T16:12:55.807Z,99604.00
2024-04-25T16:15:25.763Z,99610.88
2024-04-25T16:17:55.874Z,99607.38
2024-04-25T16:20:25.667Z,99617.72
2024-04-25T16:22:56.111Z,99609.00
2024-04-25T16:25:25.839Z,99611.63
2024-04-25T16:27:55.474Z,99607.28
2024-04-25T16:30:25.965Z,99607.34
2024-04-25T16:32:55.758Z,99603.03
2024-04-25T16:35:25.487Z,99607.41
2024-04-25T16:37:57.082Z,99607.44
2024-04-25T16:40:32.840Z,99605.72
2024-04-25T16:43:02.584Z,99604.88
2024-04-25T16:45:32.366Z,99608.38
2024-04-25T16:48:02.392Z,99600.59
2024-04-25T16:50:32.065Z,99601.47
2024-04-25T16:53:01.946Z,99610.16
2024-04-25T16:55:34.257Z,99602.34
2024-04-25T16:58:04.260Z,99591.06
2024-04-25T17:00:35.605Z,99597.13
2024-04-25T17:03:06.076Z,99600.59
2024-04-25T17:05:36.211Z,99596.28
2024-04-25T17:08:05.990Z,99594.56
2024-04-25T17:10:39.084Z,99591.97
2024-04-25T17:13:08.741Z,99591.97
2024-04-25T17:15:38.564Z,99596.25
2024-04-25T17:18:08.705Z,99598.00
2024-04-25T17:20:38.407Z,99595.41
2024-04-25T17:23:08.233Z,99591.06
2024-04-25T17:25:40.476Z,99595.44
2024-04-25T17:28:10.423Z,99587.66
2024-04-25T17:30:40.099Z,99592.84
2024-04-25T17:33:09.950Z,99597.16
2024-04-25T17:35:39.721Z,99585.03
2024-04-25T17:38:09.445Z,99594.56
2024-04-25T17:40:41.838Z,99598.03
2024-04-25T17:43:11.903Z,99595.44
2024-04-25T17:45:41.579Z,99592.84
2024-04-25T17:48:11.364Z,99590.25
2024-04-25T17:50:41.162Z,99596.31
2024-04-25T17:53:10.817Z,99596.31
2024-04-25T17:55:43.114Z,99597.19
2024-04-25T17:58:12.978Z,99598.94
2024-04-25T18:00:42.641Z,99596.34
2024-04-25T18:03:12.614Z,99607.59
2024-04-25T18:05:42.658Z,99607.59
2024-04-25T18:08:14.678Z,99606.72
2024-04-25T18:10:47.096Z,99610.19
2024-04-25T18:13:16.749Z,99612.75
2024-04-25T18:15:46.540Z,99606.66
2024-04-25T18:18:16.456Z,99613.56
2024-04-25T18:20:46.408Z,99606.59
2024-04-25T18:23:16.602Z,99606.59
2024-04-25T18:25:48.922Z,99610.94
2024-04-25T18:28:22.423Z,99608.31
2024-04-25T18:30:52.136Z,99618.69
2024-04-25T18:33:21.891Z,99611.72
2024-04-25T18:35:57.463Z,99614.28
2024-04-25T18:38:27.178Z,99622.06
2024-04-25T18:40:59.734Z,99616.84
2024-04-25T18:43:29.458Z,99627.25
2024-04-25T18:45:59.120Z,99616.78
2024-04-25T18:48:28.967Z,99616.78
2024-04-25T18:50:58.680Z,99619.34
2024-04-25T18:53:28.418Z,99620.19
2024-04-25T18:56:00.888Z,99623.59
2024-04-25T18:58:30.564Z,99620.13
2024-04-25T19:01:00.314Z,99620.13
2024-04-25T19:03:30.128Z,99623.56
2024-04-25T19:05:59.798Z,99628.75
2024-04-25T19:08:29.856Z,99615.75
2024-04-25T19:11:02.481Z,99626.97
2024-04-25T19:13:32.160Z,99617.44
2024-04-25T19:16:02.603Z,99622.59
2024-04-25T19:18:32.405Z,99620.84
2024-04-25T19:21:04.595Z,99626.00
2024-04-25T19:23:34.402Z,99627.72
2024-04-25T19:26:06.850Z,99619.84
2024-04-25T19:28:36.545Z,99630.22
2024-04-25T19:31:07.049Z,99623.22
2024-04-25T19:33:37.632Z,99625.78
2024-04-25T19:36:09.227Z,99625.75
2024-04-25T19:38:38.912Z,99623.97
2024-04-25T19:41:11.339Z,99623.03
2024-04-25T19:43:41.013Z,99625.59
2024-04-25T19:46:13.391Z,99629.00
2024-04-25T19:48:45.544Z,99621.19
2024-04-25T19:51:15.442Z,99631.50
2024-04-25T19:53:45.525Z,99625.44
2024-04-25T19:56:17.918Z,99625.41
2024-04-25T19:58:47.689Z,99626.22
2024-04-25T20:01:18.075Z,99624.44
2024-04-25T20:03:48.628Z,99619.25
2024-04-25T20:06:20.595Z,99620.88
2024-04-25T20:08:50.356Z,99622.59
2024-04-25T20:11:23.041Z,99626.88
2024-04-25T20:13:53.537Z,99621.69
2024-04-25T20:16:23.189Z,99626.88
2024-04-25T20:19:08.971Z,99620.78
2024-04-25T20:21:43.179Z,99625.91
2024-04-25T20:24:13.058Z,99628.41
2024-04-25T20:26:45.452Z,99624.94
2024-04-25T20:29:15.136Z,99628.34
2024-04-25T20:31:44.756Z,99629.13
2024-04-25T20:34:14.632Z,99628.22
2024-04-25T20:36:46.829Z,99634.22
2024-04-25T20:39:16.505Z,99629.00
2024-04-25T20:41:49.103Z,99626.41
2024-04-25T20:44:19.628Z,99623.78
2024-04-25T20:46:49.347Z,99635.81
2024-04-25T20:49:19.061Z,99627.16
2024-04-25T20:51:48.756Z,99627.97
2024-04-25T20:54:18.400Z,99632.31
2024-04-25T20:56:50.691Z,99638.34
2024-04-25T20:59:20.340Z,99629.69
2024-04-25T21:01:50.016Z,99631.38
2024-04-25T21:04:19.758Z,99632.16
2024-04-25T21:06:49.500Z,99635.53
2024-04-25T21:09:20.185Z,99625.13
2024-04-25T21:11:52.494Z,99629.38
2024-04-25T21:14:22.170Z,99632.75
2024-04-25T21:16:53.067Z,99627.56
2024-04-25T21:19:23.577Z,99626.63
2024-04-25T21:21:53.321Z,99630.03
2024-04-25T21:24:23.018Z,99634.25
2024-04-25T21:26:55.300Z,99637.66
2024-04-25T21:29:25.572Z,99636.81
2024-04-25T21:31:55.698Z,99630.69
2024-04-25T21:34:25.528Z,99626.41
2024-04-25T21:36:55.213Z,99635.88
2024-04-25T21:39:24.902Z,99628.09
2024-04-25T21:41:57.230Z,99622.03
2024-04-25T21:44:27.013Z,99629.75
2024-04-25T21:46:56.706Z,99633.16
2024-04-25T21:49:26.773Z,99627.09
2024-04-25T21:51:56.605Z,99622.75
2024-04-25T21:54:26.238Z,99619.25
2024-04-25T21:56:58.587Z,99626.06
2024-04-25T21:59:28.274Z,99623.44
2024-04-25T22:01:58.887Z,99627.72
2024-04-25T22:04:28.529Z,99619.06
2024-04-25T22:06:58.379Z,99617.25
2024-04-25T22:09:28.118Z,99624.19
2024-04-25T22:12:00.525Z,99616.41
2024-04-25T22:14:30.576Z,99612.94
2024-04-25T22:17:00.238Z,99615.47
2024-04-25T22:19:30.040Z,99618.97
2024-04-25T22:21:59.753Z,99608.66
2024-04-25T22:24:29.703Z,99608.59
2024-04-25T22:27:02.620Z,99617.16
2024-04-25T22:29:32.336Z,99616.16
2024-04-25T22:32:02.033Z,99617.81
2024-04-25T22:34:33.000Z,99617.81
2024-04-25T22:37:02.749Z,99615.22
2024-04-25T22:39:32.424Z,99616.81
2024-04-25T22:42:04.727Z,99618.56
2024-04-25T22:44:35.489Z,99622.78
2024-04-25T22:47:05.254Z,99614.22
2024-04-25T22:49:34.875Z,99618.56
2024-04-25T22:52:04.637Z,99608.28
2024-04-25T22:54:34.332Z,99602.25
2024-04-25T22:57:07.460Z,99603.19
2024-04-25T22:59:37.258Z,99606.63
2024-04-25T23:02:07.113Z,99602.38
2024-04-25T23:04:37.287Z,99606.69
2024-04-25T23:07:07.215Z,99602.41
2024-04-25T23:09:37.471Z,99601.59
2024-04-25T23:12:11.454Z,99597.38
2024-04-25T23:14:41.335Z,99603.50
2024-04-25T23:17:11.085Z,99594.94
2024-04-25T23:19:38.318Z,99595.91
2024-04-25T23:22:08.491Z,99595.03
2024-04-25T23:24:38.135Z,99593.31
2024-04-25T23:27:10.403Z,99590.72
2024-04-25T23:29:40.066Z,99590.72
2024-04-25T23:32:10.044Z,99592.47
2024-04-25T23:34:40.663Z,99585.59
2024-04-25T23:37:10.366Z,99583.94
2024-04-25T23:39:42.212Z,99577.84
2024-04-25T23:42:14.590Z,99587.34
2024-04-25T23:44:44.588Z,99576.97
2024-04-25T23:47:14.263Z,99576.06
2024-04-25T23:49:44.761Z,99574.25
2024-04-25T23:52:20.738Z,99565.56
2024-04-25T23:54:50.698Z,99571.59
2024-04-25T23:57:22.992Z,99569.94
2024-04-25T23:59:52.712Z,99563.03
